sensor_id;sensor_type;location;lat;lon;timestamp;P1;durP1;ratioP1;P2;durP2;ratioP2
35188;SDS011;21762;54.480;18.556;2022-07-23T00:01:17;13.15;;;10.20;;
35188;SDS011;21762;54.480;18.556;2022-07-23T00:03:45;13.35;;;10.05;;
35188;SDS011;21762;54.480;18.556;2022-07-23T00:06:14;16.15;;;10.50;;
35188;SDS011;21762;54.480;18.556;2022-07-23T00:08:42;17.27;;;9.93;;
35188;SDS011;21762;54.480;18.556;2022-07-23T00:11:12;16.65;;;10.25;;
35188;SDS011;21762;54.480;18.556;2022-07-23T00:13:40;13.00;;;9.68;;
35188;SDS011;21762;54.480;18.556;2022-07-23T00:16:08;12.77;;;9.52;;
35188;SDS011;21762;54.480;18.556;2022-07-23T00:18:37;16.35;;;10.23;;
35188;SDS011;21762;54.480;18.556;2022-07-23T00:21:05;15.95;;;10.63;;
35188;SDS011;21762;54.480;18.556;2022-07-23T00:23:34;16.20;;;11.93;;
35188;SDS011;21762;54.480;18.556;2022-07-23T00:26:02;19.25;;;10.75;;
35188;SDS011;21762;54.480;18.556;2022-07-23T00:28:32;15.77;;;10.60;;
35188;SDS011;21762;54.480;18.556;2022-07-23T00:31:00;16.25;;;10.95;;
35188;SDS011;21762;54.480;18.556;2022-07-23T00:33:28;12.35;;;10.43;;
35188;SDS011;21762;54.480;18.556;2022-07-23T00:35:57;15.50;;;11.35;;
35188;SDS011;21762;54.480;18.556;2022-07-23T00:38:25;20.45;;;12.30;;
35188;SDS011;21762;54.480;18.556;2022-07-23T00:40:54;18.73;;;13.25;;
35188;SDS011;21762;54.480;18.556;2022-07-23T00:43:22;21.83;;;13.25;;
35188;SDS011;21762;54.480;18.556;2022-07-23T00:45:52;17.45;;;12.13;;
35188;SDS011;21762;54.480;18.556;2022-07-23T00:48:21;19.42;;;12.68;;
35188;SDS011;21762;54.480;18.556;2022-07-23T00:50:49;17.63;;;12.02;;
35188;SDS011;21762;54.480;18.556;2022-07-23T00:53:17;22.15;;;11.98;;
35188;SDS011;21762;54.480;18.556;2022-07-23T00:55:47;17.98;;;11.95;;
35188;SDS011;21762;54.480;18.556;2022-07-23T00:58:15;17.95;;;11.88;;
35188;SDS011;21762;54.480;18.556;2022-07-23T01:00:44;19.20;;;11.05;;
35188;SDS011;21762;54.480;18.556;2022-07-23T01:03:14;17.27;;;10.25;;
35188;SDS011;21762;54.480;18.556;2022-07-23T01:05:42;16.92;;;10.85;;
35188;SDS011;21762;54.480;18.556;2022-07-23T01:08:10;17.98;;;11.35;;
35188;SDS011;21762;54.480;18.556;2022-07-23T01:10:39;20.73;;;11.23;;
35188;SDS011;21762;54.480;18.556;2022-07-23T01:13:08;18.45;;;10.63;;
35188;SDS011;21762;54.480;18.556;2022-07-23T01:15:38;14.82;;;9.07;;
35188;SDS011;21762;54.480;18.556;2022-07-23T01:18:07;13.57;;;9.15;;
35188;SDS011;21762;54.480;18.556;2022-07-23T01:20:38;12.77;;;9.27;;
35188;SDS011;21762;54.480;18.556;2022-07-23T01:23:09;15.68;;;9.18;;
35188;SDS011;21762;54.480;18.556;2022-07-23T01:25:47;13.82;;;9.27;;
35188;SDS011;21762;54.480;18.556;2022-07-23T01:28:15;14.80;;;9.68;;
35188;SDS011;21762;54.480;18.556;2022-07-23T01:30:44;13.35;;;10.63;;
35188;SDS011;21762;54.480;18.556;2022-07-23T01:33:14;12.32;;;9.18;;
35188;SDS011;21762;54.480;18.556;2022-07-23T01:35:42;12.77;;;8.80;;
35188;SDS011;21762;54.480;18.556;2022-07-23T01:38:17;15.65;;;9.85;;
35188;SDS011;21762;54.480;18.556;2022-07-23T01:40:45;13.95;;;9.95;;
35188;SDS011;21762;54.480;18.556;2022-07-23T01:43:15;14.45;;;10.02;;
35188;SDS011;21762;54.480;18.556;2022-07-23T01:45:44;14.02;;;10.00;;
35188;SDS011;21762;54.480;18.556;2022-07-23T01:48:13;12.93;;;9.93;;
35188;SDS011;21762;54.480;18.556;2022-07-23T01:50:58;12.75;;;9.27;;
35188;SDS011;21762;54.480;18.556;2022-07-23T01:53:38;15.70;;;10.10;;
35188;SDS011;21762;54.480;18.556;2022-07-23T01:56:07;14.50;;;9.85;;
35188;SDS011;21762;54.480;18.556;2022-07-23T01:58:37;13.43;;;9.52;;
35188;SDS011;21762;54.480;18.556;2022-07-23T02:01:05;14.73;;;9.18;;
35188;SDS011;21762;54.480;18.556;2022-07-23T02:03:33;12.05;;;8.93;;
35188;SDS011;21762;54.480;18.556;2022-07-23T02:06:02;14.32;;;10.20;;
35188;SDS011;21762;54.480;18.556;2022-07-23T02:08:30;12.38;;;9.25;;
35188;SDS011;21762;54.480;18.556;2022-07-23T02:11:02;14.70;;;9.45;;
35188;SDS011;21762;54.480;18.556;2022-07-23T02:13:32;12.52;;;9.32;;
35188;SDS011;21762;54.480;18.556;2022-07-23T02:16:00;13.15;;;9.20;;
35188;SDS011;21762;54.480;18.556;2022-07-23T02:18:28;15.02;;;9.63;;
35188;SDS011;21762;54.480;18.556;2022-07-23T02:20:57;11.20;;;9.25;;
35188;SDS011;21762;54.480;18.556;2022-07-23T02:23:26;15.05;;;9.93;;
35188;SDS011;21762;54.480;18.556;2022-07-23T02:25:55;13.15;;;9.80;;
35188;SDS011;21762;54.480;18.556;2022-07-23T02:28:24;13.52;;;8.57;;
35188;SDS011;21762;54.480;18.556;2022-07-23T02:30:52;13.57;;;8.13;;
35188;SDS011;21762;54.480;18.556;2022-07-23T02:33:20;13.02;;;8.85;;
35188;SDS011;21762;54.480;18.556;2022-07-23T02:35:49;11.80;;;8.80;;
35188;SDS011;21762;54.480;18.556;2022-07-23T02:38:18;13.73;;;9.45;;
35188;SDS011;21762;54.480;18.556;2022-07-23T02:40:47;10.95;;;8.65;;
35188;SDS011;21762;54.480;18.556;2022-07-23T02:43:15;12.13;;;8.88;;
35188;SDS011;21762;54.480;18.556;2022-07-23T02:45:46;13.38;;;9.32;;
35188;SDS011;21762;54.480;18.556;2022-07-23T02:48:14;17.73;;;9.82;;
35188;SDS011;21762;54.480;18.556;2022-07-23T02:50:44;17.35;;;10.10;;
35188;SDS011;21762;54.480;18.556;2022-07-23T02:53:16;16.42;;;10.13;;
35188;SDS011;21762;54.480;18.556;2022-07-23T02:55:45;15.73;;;9.65;;
35188;SDS011;21762;54.480;18.556;2022-07-23T02:58:13;18.15;;;11.18;;
35188;SDS011;21762;54.480;18.556;2022-07-23T03:00:41;14.93;;;10.07;;
35188;SDS011;21762;54.480;18.556;2022-07-23T03:03:11;19.05;;;10.15;;
35188;SDS011;21762;54.480;18.556;2022-07-23T03:05:40;16.27;;;9.90;;
35188;SDS011;21762;54.480;18.556;2022-07-23T03:08:08;15.20;;;9.85;;
35188;SDS011;21762;54.480;18.556;2022-07-23T03:10:39;14.73;;;10.03;;
35188;SDS011;21762;54.480;18.556;2022-07-23T03:13:08;17.10;;;10.05;;
35188;SDS011;21762;54.480;18.556;2022-07-23T03:15:36;12.48;;;9.75;;
35188;SDS011;21762;54.480;18.556;2022-07-23T03:18:04;16.30;;;10.10;;
35188;SDS011;21762;54.480;18.556;2022-07-23T03:20:34;16.90;;;9.55;;
35188;SDS011;21762;54.480;18.556;2022-07-23T03:23:02;15.38;;;10.00;;
35188;SDS011;21762;54.480;18.556;2022-07-23T03:25:30;17.05;;;10.23;;
35188;SDS011;21762;54.480;18.556;2022-07-23T03:27:59;15.77;;;9.82;;
35188;SDS011;21762;54.480;18.556;2022-07-23T03:30:28;13.63;;;9.70;;
35188;SDS011;21762;54.480;18.556;2022-07-23T03:32:56;13.38;;;9.57;;
35188;SDS011;21762;54.480;18.556;2022-07-23T03:35:24;13.13;;;10.13;;
35188;SDS011;21762;54.480;18.556;2022-07-23T03:38:17;17.65;;;9.38;;
35188;SDS011;21762;54.480;18.556;2022-07-23T03:40:45;16.17;;;9.63;;
35188;SDS011;21762;54.480;18.556;2022-07-23T03:43:14;13.77;;;9.73;;
35188;SDS011;21762;54.480;18.556;2022-07-23T03:45:43;15.95;;;9.57;;
35188;SDS011;21762;54.480;18.556;2022-07-23T03:48:12;14.73;;;9.45;;
35188;SDS011;21762;54.480;18.556;2022-07-23T03:50:40;14.63;;;9.60;;
35188;SDS011;21762;54.480;18.556;2022-07-23T03:53:08;14.63;;;9.40;;
35188;SDS011;21762;54.480;18.556;2022-07-23T03:55:37;14.95;;;9.82;;
35188;SDS011;21762;54.480;18.556;2022-07-23T03:58:06;12.15;;;9.93;;
35188;SDS011;21762;54.480;18.556;2022-07-23T04:00:34;16.52;;;10.13;;
35188;SDS011;21762;54.480;18.556;2022-07-23T04:03:03;17.92;;;9.70;;
35188;SDS011;21762;54.480;18.556;2022-07-23T04:05:32;13.88;;;9.38;;
35188;SDS011;21762;54.480;18.556;2022-07-23T04:08:05;11.00;;;9.30;;
35188;SDS011;21762;54.480;18.556;2022-07-23T04:10:38;19.50;;;9.93;;
35188;SDS011;21762;54.480;18.556;2022-07-23T04:13:07;12.48;;;9.55;;
35188;SDS011;21762;54.480;18.556;2022-07-23T04:15:35;14.43;;;10.07;;
35188;SDS011;21762;54.480;18.556;2022-07-23T04:18:04;13.25;;;9.55;;
35188;SDS011;21762;54.480;18.556;2022-07-23T04:20:44;17.27;;;10.85;;
35188;SDS011;21762;54.480;18.556;2022-07-23T04:23:12;16.85;;;10.90;;
35188;SDS011;21762;54.480;18.556;2022-07-23T04:25:43;14.05;;;10.10;;
35188;SDS011;21762;54.480;18.556;2022-07-23T04:28:11;18.60;;;11.68;;
35188;SDS011;21762;54.480;18.556;2022-07-23T04:30:41;14.35;;;9.77;;
35188;SDS011;21762;54.480;18.556;2022-07-23T04:33:11;15.27;;;9.82;;
35188;SDS011;21762;54.480;18.556;2022-07-23T04:35:39;15.68;;;9.93;;
35188;SDS011;21762;54.480;18.556;2022-07-23T04:38:18;16.25;;;10.02;;
35188;SDS011;21762;54.480;18.556;2022-07-23T04:40:50;14.65;;;9.32;;
35188;SDS011;21762;54.480;18.556;2022-07-23T04:43:18;16.13;;;10.10;;
35188;SDS011;21762;54.480;18.556;2022-07-23T04:45:49;16.45;;;10.00;;
35188;SDS011;21762;54.480;18.556;2022-07-23T04:48:18;17.25;;;10.52;;
35188;SDS011;21762;54.480;18.556;2022-07-23T04:50:49;19.05;;;9.27;;
35188;SDS011;21762;54.480;18.556;2022-07-23T04:53:21;11.98;;;9.23;;
35188;SDS011;21762;54.480;18.556;2022-07-23T04:55:54;12.57;;;8.85;;
35188;SDS011;21762;54.480;18.556;2022-07-23T04:58:23;17.75;;;9.18;;
35188;SDS011;21762;54.480;18.556;2022-07-23T05:00:51;14.30;;;8.90;;
35188;SDS011;21762;54.480;18.556;2022-07-23T05:03:19;12.48;;;8.25;;
35188;SDS011;21762;54.480;18.556;2022-07-23T05:05:48;15.75;;;8.60;;
35188;SDS011;21762;54.480;18.556;2022-07-23T05:08:17;12.32;;;8.07;;
35188;SDS011;21762;54.480;18.556;2022-07-23T05:10:49;14.90;;;8.55;;
35188;SDS011;21762;54.480;18.556;2022-07-23T05:13:20;15.60;;;7.88;;
35188;SDS011;21762;54.480;18.556;2022-07-23T05:15:52;10.38;;;7.75;;
35188;SDS011;21762;54.480;18.556;2022-07-23T05:18:21;18.45;;;8.15;;
35188;SDS011;21762;54.480;18.556;2022-07-23T05:20:49;14.80;;;8.32;;
35188;SDS011;21762;54.480;18.556;2022-07-23T05:23:19;15.43;;;8.30;;
35188;SDS011;21762;54.480;18.556;2022-07-23T05:25:48;20.98;;;8.55;;
35188;SDS011;21762;54.480;18.556;2022-07-23T05:28:18;14.65;;;8.55;;
35188;SDS011;21762;54.480;18.556;2022-07-23T05:30:48;15.60;;;8.27;;
35188;SDS011;21762;54.480;18.556;2022-07-23T05:33:17;13.35;;;7.70;;
35188;SDS011;21762;54.480;18.556;2022-07-23T05:35:46;15.07;;;7.15;;
35188;SDS011;21762;54.480;18.556;2022-07-23T05:38:26;12.27;;;7.82;;
35188;SDS011;21762;54.480;18.556;2022-07-23T05:40:57;10.43;;;6.15;;
35188;SDS011;21762;54.480;18.556;2022-07-23T05:43:27;13.65;;;6.65;;
35188;SDS011;21762;54.480;18.556;2022-07-23T05:46:02;13.65;;;5.80;;
35188;SDS011;21762;54.480;18.556;2022-07-23T05:48:30;15.15;;;5.93;;
35188;SDS011;21762;54.480;18.556;2022-07-23T05:51:07;15.77;;;6.53;;
35188;SDS011;21762;54.480;18.556;2022-07-23T05:53:35;17.15;;;6.38;;
35188;SDS011;21762;54.480;18.556;2022-07-23T05:56:18;11.60;;;5.97;;
35188;SDS011;21762;54.480;18.556;2022-07-23T05:58:47;9.00;;;5.45;;
35188;SDS011;21762;54.480;18.556;2022-07-23T06:01:19;11.88;;;5.28;;
35188;SDS011;21762;54.480;18.556;2022-07-23T06:04:04;8.75;;;5.13;;
35188;SDS011;21762;54.480;18.556;2022-07-23T06:06:36;11.27;;;5.35;;
35188;SDS011;21762;54.480;18.556;2022-07-23T06:09:06;13.73;;;5.47;;
35188;SDS011;21762;54.480;18.556;2022-07-23T06:11:35;11.45;;;4.80;;
35188;SDS011;21762;54.480;18.556;2022-07-23T06:14:03;8.55;;;4.82;;
35188;SDS011;21762;54.480;18.556;2022-07-23T06:16:45;10.32;;;4.90;;
35188;SDS011;21762;54.480;18.556;2022-07-23T06:19:14;11.95;;;5.45;;
35188;SDS011;21762;54.480;18.556;2022-07-23T06:21:43;12.60;;;5.38;;
35188;SDS011;21762;54.480;18.556;2022-07-23T06:24:13;10.30;;;4.43;;
35188;SDS011;21762;54.480;18.556;2022-07-23T06:26:41;9.93;;;4.50;;
35188;SDS011;21762;54.480;18.556;2022-07-23T06:29:09;7.30;;;4.35;;
35188;SDS011;21762;54.480;18.556;2022-07-23T06:31:37;11.95;;;4.55;;
35188;SDS011;21762;54.480;18.556;2022-07-23T06:34:07;12.93;;;4.88;;
35188;SDS011;21762;54.480;18.556;2022-07-23T06:36:35;9.68;;;4.30;;
35188;SDS011;21762;54.480;18.556;2022-07-23T06:39:05;10.25;;;4.25;;
35188;SDS011;21762;54.480;18.556;2022-07-23T06:41:33;9.98;;;4.80;;
35188;SDS011;21762;54.480;18.556;2022-07-23T06:44:01;12.35;;;4.72;;
35188;SDS011;21762;54.480;18.556;2022-07-23T06:46:31;8.70;;;4.07;;
35188;SDS011;21762;54.480;18.556;2022-07-23T06:49:00;11.70;;;4.72;;
35188;SDS011;21762;54.480;18.556;2022-07-23T06:51:30;14.73;;;5.03;;
35188;SDS011;21762;54.480;18.556;2022-07-23T06:54:00;13.15;;;4.55;;
35188;SDS011;21762;54.480;18.556;2022-07-23T06:56:28;9.93;;;4.68;;
35188;SDS011;21762;54.480;18.556;2022-07-23T06:58:56;13.20;;;4.65;;
35188;SDS011;21762;54.480;18.556;2022-07-23T07:01:26;7.68;;;4.47;;
35188;SDS011;21762;54.480;18.556;2022-07-23T07:03:55;12.15;;;5.40;;
35188;SDS011;21762;54.480;18.556;2022-07-23T07:06:23;13.00;;;4.78;;
35188;SDS011;21762;54.480;18.556;2022-07-23T07:08:52;15.73;;;5.00;;
35188;SDS011;21762;54.480;18.556;2022-07-23T07:11:21;12.98;;;4.60;;
35188;SDS011;21762;54.480;18.556;2022-07-23T07:13:50;9.50;;;4.90;;
35188;SDS011;21762;54.480;18.556;2022-07-23T07:16:18;8.02;;;4.60;;
35188;SDS011;21762;54.480;18.556;2022-07-23T07:18:46;10.88;;;4.90;;
35188;SDS011;21762;54.480;18.556;2022-07-23T07:21:14;10.13;;;4.75;;
35188;SDS011;21762;54.480;18.556;2022-07-23T07:23:42;6.93;;;4.05;;
35188;SDS011;21762;54.480;18.556;2022-07-23T07:26:12;10.90;;;4.20;;
35188;SDS011;21762;54.480;18.556;2022-07-23T07:28:40;8.63;;;4.30;;
35188;SDS011;21762;54.480;18.556;2022-07-23T07:31:08;8.65;;;4.10;;
35188;SDS011;21762;54.480;18.556;2022-07-23T07:33:36;8.88;;;4.00;;
35188;SDS011;21762;54.480;18.556;2022-07-23T07:36:05;7.07;;;3.92;;
35188;SDS011;21762;54.480;18.556;2022-07-23T07:38:33;9.15;;;4.35;;
35188;SDS011;21762;54.480;18.556;2022-07-23T07:41:02;8.57;;;4.85;;
35188;SDS011;21762;54.480;18.556;2022-07-23T07:43:31;11.68;;;5.10;;
35188;SDS011;21762;54.480;18.556;2022-07-23T07:45:59;9.02;;;4.65;;
35188;SDS011;21762;54.480;18.556;2022-07-23T07:48:27;10.07;;;4.30;;
35188;SDS011;21762;54.480;18.556;2022-07-23T07:50:56;11.48;;;4.60;;
35188;SDS011;21762;54.480;18.556;2022-07-23T07:53:24;11.85;;;4.88;;
35188;SDS011;21762;54.480;18.556;2022-07-23T07:55:52;7.35;;;4.15;;
35188;SDS011;21762;54.480;18.556;2022-07-23T07:58:20;7.45;;;4.50;;
35188;SDS011;21762;54.480;18.556;2022-07-23T08:00:50;8.27;;;4.93;;
35188;SDS011;21762;54.480;18.556;2022-07-23T08:03:18;9.73;;;4.70;;
35188;SDS011;21762;54.480;18.556;2022-07-23T08:05:46;7.20;;;4.47;;
35188;SDS011;21762;54.480;18.556;2022-07-23T08:08:14;6.75;;;3.97;;
35188;SDS011;21762;54.480;18.556;2022-07-23T08:10:42;9.25;;;4.53;;
35188;SDS011;21762;54.480;18.556;2022-07-23T08:13:12;7.88;;;4.95;;
35188;SDS011;21762;54.480;18.556;2022-07-23T08:15:41;9.30;;;4.65;;
35188;SDS011;21762;54.480;18.556;2022-07-23T08:18:11;10.52;;;4.68;;
35188;SDS011;21762;54.480;18.556;2022-07-23T08:20:39;8.25;;;4.68;;
35188;SDS011;21762;54.480;18.556;2022-07-23T08:23:08;10.23;;;4.65;;
35188;SDS011;21762;54.480;18.556;2022-07-23T08:25:38;13.25;;;4.82;;
35188;SDS011;21762;54.480;18.556;2022-07-23T08:28:09;9.55;;;5.15;;
35188;SDS011;21762;54.480;18.556;2022-07-23T08:30:37;12.02;;;5.20;;
35188;SDS011;21762;54.480;18.556;2022-07-23T08:33:07;11.02;;;5.22;;
35188;SDS011;21762;54.480;18.556;2022-07-23T08:35:40;10.23;;;4.40;;
35188;SDS011;21762;54.480;18.556;2022-07-23T08:38:09;9.90;;;5.45;;
35188;SDS011;21762;54.480;18.556;2022-07-23T08:40:38;10.38;;;5.18;;
35188;SDS011;21762;54.480;18.556;2022-07-23T08:43:10;12.30;;;5.55;;
35188;SDS011;21762;54.480;18.556;2022-07-23T08:45:40;13.13;;;5.20;;
35188;SDS011;21762;54.480;18.556;2022-07-23T08:48:11;14.80;;;5.82;;
35188;SDS011;21762;54.480;18.556;2022-07-23T08:50:43;12.75;;;5.15;;
35188;SDS011;21762;54.480;18.556;2022-07-23T08:53:13;9.07;;;5.20;;
35188;SDS011;21762;54.480;18.556;2022-07-23T08:55:43;10.70;;;5.78;;
35188;SDS011;21762;54.480;18.556;2022-07-23T08:58:11;9.00;;;5.97;;
35188;SDS011;21762;54.480;18.556;2022-07-23T09:00:39;11.15;;;6.00;;
35188;SDS011;21762;54.480;18.556;2022-07-23T09:03:09;11.07;;;5.97;;
35188;SDS011;21762;54.480;18.556;2022-07-23T09:05:44;10.05;;;6.30;;
35188;SDS011;21762;54.480;18.556;2022-07-23T09:08:14;9.90;;;5.60;;
35188;SDS011;21762;54.480;18.556;2022-07-23T09:10:46;13.32;;;6.53;;
35188;SDS011;21762;54.480;18.556;2022-07-23T09:13:30;14.57;;;6.43;;
35188;SDS011;21762;54.480;18.556;2022-07-23T09:16:01;11.30;;;6.10;;
35188;SDS011;21762;54.480;18.556;2022-07-23T09:18:35;9.40;;;6.10;;
35188;SDS011;21762;54.480;18.556;2022-07-23T09:21:18;12.05;;;6.35;;
35188;SDS011;21762;54.480;18.556;2022-07-23T09:23:50;9.50;;;5.35;;
35188;SDS011;21762;54.480;18.556;2022-07-23T09:31:22;13.65;;;5.38;;
35188;SDS011;21762;54.480;18.556;2022-07-23T09:33:51;10.23;;;5.75;;
35188;SDS011;21762;54.480;18.556;2022-07-23T09:36:28;10.25;;;5.47;;
35188;SDS011;21762;54.480;18.556;2022-07-23T09:38:57;7.80;;;5.10;;
35188;SDS011;21762;54.480;18.556;2022-07-23T09:41:25;11.88;;;6.03;;
35188;SDS011;21762;54.480;18.556;2022-07-23T09:44:06;9.57;;;5.47;;
35188;SDS011;21762;54.480;18.556;2022-07-23T09:46:36;12.40;;;5.53;;
35188;SDS011;21762;54.480;18.556;2022-07-23T09:49:10;18.17;;;5.97;;
35188;SDS011;21762;54.480;18.556;2022-07-23T09:51:45;8.43;;;5.18;;
35188;SDS011;21762;54.480;18.556;2022-07-23T09:54:22;13.32;;;5.32;;
35188;SDS011;21762;54.480;18.556;2022-07-23T09:56:57;11.88;;;5.90;;
35188;SDS011;21762;54.480;18.556;2022-07-23T09:59:27;11.32;;;5.40;;
35188;SDS011;21762;54.480;18.556;2022-07-23T10:01:57;9.43;;;5.45;;
35188;SDS011;21762;54.480;18.556;2022-07-23T10:04:29;10.80;;;5.80;;
35188;SDS011;21762;54.480;18.556;2022-07-23T10:07:12;12.05;;;4.93;;
35188;SDS011;21762;54.480;18.556;2022-07-23T10:10:10;13.93;;;5.63;;
35188;SDS011;21762;54.480;18.556;2022-07-23T10:12:57;9.05;;;5.75;;
35188;SDS011;21762;54.480;18.556;2022-07-23T10:15:42;9.43;;;4.45;;
35188;SDS011;21762;54.480;18.556;2022-07-23T10:18:11;11.93;;;6.20;;
35188;SDS011;21762;54.480;18.556;2022-07-23T10:20:39;8.45;;;5.10;;
35188;SDS011;21762;54.480;18.556;2022-07-23T10:23:24;13.20;;;5.35;;
35188;SDS011;21762;54.480;18.556;2022-07-23T10:25:57;11.13;;;5.57;;
35188;SDS011;21762;54.480;18.556;2022-07-23T10:28:32;11.32;;;5.13;;
35188;SDS011;21762;54.480;18.556;2022-07-23T10:31:09;9.57;;;5.43;;
35188;SDS011;21762;54.480;18.556;2022-07-23T10:33:55;13.75;;;5.38;;
35188;SDS011;21762;54.480;18.556;2022-07-23T10:36:27;11.00;;;6.03;;
35188;SDS011;21762;54.480;18.556;2022-07-23T10:39:03;9.90;;;5.40;;
35188;SDS011;21762;54.480;18.556;2022-07-23T10:41:33;13.13;;;5.68;;
35188;SDS011;21762;54.480;18.556;2022-07-23T10:44:08;15.32;;;6.57;;
35188;SDS011;21762;54.480;18.556;2022-07-23T10:49:50;9.63;;;5.55;;
35188;SDS011;21762;54.480;18.556;2022-07-23T10:52:19;7.10;;;5.35;;
35188;SDS011;21762;54.480;18.556;2022-07-23T10:54:53;8.88;;;5.78;;
35188;SDS011;21762;54.480;18.556;2022-07-23T10:57:22;11.05;;;5.35;;
35188;SDS011;21762;54.480;18.556;2022-07-23T11:02:54;9.97;;;5.70;;
35188;SDS011;21762;54.480;18.556;2022-07-23T11:05:23;9.55;;;5.65;;
35188;SDS011;21762;54.480;18.556;2022-07-23T11:10:45;8.52;;;5.30;;
35188;SDS011;21762;54.480;18.556;2022-07-23T11:13:27;9.98;;;6.07;;
35188;SDS011;21762;54.480;18.556;2022-07-23T11:16:12;12.32;;;5.97;;
35188;SDS011;21762;54.480;18.556;2022-07-23T11:18:58;13.38;;;5.65;;
35188;SDS011;21762;54.480;18.556;2022-07-23T11:21:41;10.73;;;5.75;;
35188;SDS011;21762;54.480;18.556;2022-07-23T11:24:19;10.10;;;5.70;;
35188;SDS011;21762;54.480;18.556;2022-07-23T11:26:51;12.55;;;6.50;;
35188;SDS011;21762;54.480;18.556;2022-07-23T11:29:41;13.30;;;6.20;;
35188;SDS011;21762;54.480;18.556;2022-07-23T11:32:22;14.07;;;6.38;;
35188;SDS011;21762;54.480;18.556;2022-07-23T11:34:59;13.75;;;5.75;;
35188;SDS011;21762;54.480;18.556;2022-07-23T11:37:35;13.77;;;6.85;;
35188;SDS011;21762;54.480;18.556;2022-07-23T11:40:07;11.85;;;5.57;;
35188;SDS011;21762;54.480;18.556;2022-07-23T11:42:39;10.68;;;5.88;;
35188;SDS011;21762;54.480;18.556;2022-07-23T11:45:08;12.60;;;5.93;;
35188;SDS011;21762;54.480;18.556;2022-07-23T11:47:36;14.10;;;4.85;;
35188;SDS011;21762;54.480;18.556;2022-07-23T11:50:05;11.05;;;5.45;;
35188;SDS011;21762;54.480;18.556;2022-07-23T11:52:34;15.23;;;5.93;;
35188;SDS011;21762;54.480;18.556;2022-07-23T11:55:04;10.20;;;5.95;;
35188;SDS011;21762;54.480;18.556;2022-07-23T11:57:33;10.20;;;6.57;;
35188;SDS011;21762;54.480;18.556;2022-07-23T12:00:05;12.55;;;5.88;;
35188;SDS011;21762;54.480;18.556;2022-07-23T12:02:40;12.07;;;6.00;;
35188;SDS011;21762;54.480;18.556;2022-07-23T12:05:11;8.43;;;6.57;;
35188;SDS011;21762;54.480;18.556;2022-07-23T12:07:41;10.27;;;6.93;;
35188;SDS011;21762;54.480;18.556;2022-07-23T12:10:12;9.32;;;6.05;;
35188;SDS011;21762;54.480;18.556;2022-07-23T12:12:43;10.60;;;6.15;;
35188;SDS011;21762;54.480;18.556;2022-07-23T12:15:13;12.88;;;7.13;;
35188;SDS011;21762;54.480;18.556;2022-07-23T12:17:43;12.57;;;6.68;;
35188;SDS011;21762;54.480;18.556;2022-07-23T12:20:16;15.02;;;8.30;;
35188;SDS011;21762;54.480;18.556;2022-07-23T12:22:47;14.38;;;8.60;;
35188;SDS011;21762;54.480;18.556;2022-07-23T12:25:17;17.60;;;9.15;;
35188;SDS011;21762;54.480;18.556;2022-07-23T12:27:57;21.00;;;10.40;;
35188;SDS011;21762;54.480;18.556;2022-07-23T12:30:29;15.23;;;8.48;;
35188;SDS011;21762;54.480;18.556;2022-07-23T12:33:00;14.25;;;9.02;;
35188;SDS011;21762;54.480;18.556;2022-07-23T12:35:31;20.25;;;9.38;;
35188;SDS011;21762;54.480;18.556;2022-07-23T12:38:05;19.58;;;10.18;;
35188;SDS011;21762;54.480;18.556;2022-07-23T12:40:35;24.65;;;10.80;;
35188;SDS011;21762;54.480;18.556;2022-07-23T12:43:05;17.42;;;11.65;;
35188;SDS011;21762;54.480;18.556;2022-07-23T12:45:43;21.20;;;12.15;;
35188;SDS011;21762;54.480;18.556;2022-07-23T12:48:23;14.35;;;10.82;;
35188;SDS011;21762;54.480;18.556;2022-07-23T12:50:53;16.77;;;10.13;;
35188;SDS011;21762;54.480;18.556;2022-07-23T12:53:23;10.60;;;7.82;;
35188;SDS011;21762;54.480;18.556;2022-07-23T12:55:57;16.83;;;8.95;;
35188;SDS011;21762;54.480;18.556;2022-07-23T12:58:40;14.20;;;9.13;;
35188;SDS011;21762;54.480;18.556;2022-07-23T13:01:22;9.77;;;6.63;;
35188;SDS011;21762;54.480;18.556;2022-07-23T13:03:56;12.85;;;6.70;;
35188;SDS011;21762;54.480;18.556;2022-07-23T13:06:26;10.25;;;6.40;;
35188;SDS011;21762;54.480;18.556;2022-07-23T13:08:55;9.13;;;6.75;;
35188;SDS011;21762;54.480;18.556;2022-07-23T13:11:23;13.02;;;6.45;;
35188;SDS011;21762;54.480;18.556;2022-07-23T13:13:51;11.43;;;6.85;;
35188;SDS011;21762;54.480;18.556;2022-07-23T13:16:19;9.07;;;6.90;;
35188;SDS011;21762;54.480;18.556;2022-07-23T13:18:49;9.68;;;7.85;;
35188;SDS011;21762;54.480;18.556;2022-07-23T13:21:17;10.25;;;7.15;;
35188;SDS011;21762;54.480;18.556;2022-07-23T13:23:45;8.95;;;6.93;;
35188;SDS011;21762;54.480;18.556;2022-07-23T13:26:14;7.43;;;5.95;;
35188;SDS011;21762;54.480;18.556;2022-07-23T13:28:42;8.90;;;5.78;;
35188;SDS011;21762;54.480;18.556;2022-07-23T13:31:10;7.43;;;5.47;;
35188;SDS011;21762;54.480;18.556;2022-07-23T13:33:39;11.85;;;6.38;;
35188;SDS011;21762;54.480;18.556;2022-07-23T13:36:09;8.65;;;6.50;;
35188;SDS011;21762;54.480;18.556;2022-07-23T13:38:37;7.20;;;5.65;;
35188;SDS011;21762;54.480;18.556;2022-07-23T13:41:05;9.80;;;6.25;;
35188;SDS011;21762;54.480;18.556;2022-07-23T13:43:34;8.38;;;5.80;;
35188;SDS011;21762;54.480;18.556;2022-07-23T13:46:02;9.75;;;6.47;;
35188;SDS011;21762;54.480;18.556;2022-07-23T13:48:30;7.68;;;6.30;;
35188;SDS011;21762;54.480;18.556;2022-07-23T13:50:58;10.93;;;6.90;;
35188;SDS011;21762;54.480;18.556;2022-07-23T13:53:28;10.98;;;6.40;;
35188;SDS011;21762;54.480;18.556;2022-07-23T13:55:56;10.05;;;5.88;;
35188;SDS011;21762;54.480;18.556;2022-07-23T13:58:25;8.57;;;5.80;;
35188;SDS011;21762;54.480;18.556;2022-07-23T14:00:53;6.75;;;5.38;;
35188;SDS011;21762;54.480;18.556;2022-07-23T14:03:21;7.60;;;5.60;;
35188;SDS011;21762;54.480;18.556;2022-07-23T14:05:51;8.18;;;6.05;;
35188;SDS011;21762;54.480;18.556;2022-07-23T14:08:19;9.10;;;5.43;;
35188;SDS011;21762;54.480;18.556;2022-07-23T14:10:49;11.07;;;5.85;;
35188;SDS011;21762;54.480;18.556;2022-07-23T14:13:17;13.20;;;5.65;;
35188;SDS011;21762;54.480;18.556;2022-07-23T14:15:45;9.13;;;5.78;;
35188;SDS011;21762;54.480;18.556;2022-07-23T14:18:14;10.10;;;6.13;;
35188;SDS011;21762;54.480;18.556;2022-07-23T14:20:42;9.82;;;5.70;;
35188;SDS011;21762;54.480;18.556;2022-07-23T14:23:10;7.68;;;5.57;;
35188;SDS011;21762;54.480;18.556;2022-07-23T14:25:38;7.43;;;5.32;;
35188;SDS011;21762;54.480;18.556;2022-07-23T14:28:08;8.82;;;5.60;;
35188;SDS011;21762;54.480;18.556;2022-07-23T14:30:38;10.25;;;6.03;;
35188;SDS011;21762;54.480;18.556;2022-07-23T14:33:06;9.23;;;6.00;;
35188;SDS011;21762;54.480;18.556;2022-07-23T14:35:34;6.88;;;5.15;;
35188;SDS011;21762;54.480;18.556;2022-07-23T14:38:03;6.38;;;5.57;;
35188;SDS011;21762;54.480;18.556;2022-07-23T14:40:31;7.60;;;5.60;;
35188;SDS011;21762;54.480;18.556;2022-07-23T14:42:59;6.95;;;5.82;;
35188;SDS011;21762;54.480;18.556;2022-07-23T14:45:28;8.25;;;6.22;;
35188;SDS011;21762;54.480;18.556;2022-07-23T14:47:56;11.40;;;5.90;;
35188;SDS011;21762;54.480;18.556;2022-07-23T14:50:25;7.68;;;5.70;;
35188;SDS011;21762;54.480;18.556;2022-07-23T14:52:53;6.95;;;5.80;;
35188;SDS011;21762;54.480;18.556;2022-07-23T14:55:21;12.82;;;5.72;;
35188;SDS011;21762;54.480;18.556;2022-07-23T14:57:50;6.22;;;5.20;;